createdAt,value
2022-11-05T00:00:13.113Z,9.23
2022-11-05T00:04:33.338Z,9.20
2022-11-05T00:08:53.841Z,9.12
2022-11-05T00:13:16.742Z,9.08
2022-11-05T00:17:18.245Z,9.11
2022-11-05T00:21:38.407Z,9.10
2022-11-05T00:25:40.145Z,9.14
2022-11-05T00:29:41.600Z,9.15
2022-11-05T00:33:43.508Z,9.17
2022-11-05T00:37:49.784Z,9.23
2022-11-05T00:42:10.455Z,9.21
2022-11-05T00:46:12.293Z,9.23
2022-11-05T00:50:14.032Z,9.24
2022-11-05T00:54:15.536Z,9.28
2022-11-05T00:58:22.016Z,9.26
2022-11-05T01:02:24.680Z,9.31
2022-11-05T01:06:26.324Z,9.34
2022-11-05T01:10:28.551Z,9.27
2022-11-05T01:14:30.404Z,9.19
2022-11-05T01:18:31.974Z,9.22
2022-11-05T01:22:33.552Z,9.27
2022-11-05T01:26:35.115Z,9.26
2022-11-05T01:30:37.184Z,9.27
2022-11-05T01:34:38.692Z,9.32
2022-11-05T01:38:40.310Z,9.34
2022-11-05T01:42:41.998Z,9.37
2022-11-05T01:46:46.125Z,9.41
2022-11-05T01:50:59.975Z,9.38
2022-11-05T01:55:03.444Z,9.38
2022-11-05T01:59:11.796Z,9.36
2022-11-05T02:03:16.504Z,9.31
2022-11-05T02:07:18.827Z,9.30
2022-11-05T02:11:20.844Z,9.30
2022-11-05T02:15:58.450Z,9.27
2022-11-05T02:19:59.947Z,9.29
2022-11-05T02:24:23.743Z,9.24
2022-11-05T02:28:34.303Z,9.18
2022-11-05T02:32:47.073Z,9.16
2022-11-05T02:37:13.173Z,9.14
2022-11-05T02:41:21.943Z,9.15
2022-11-05T02:45:23.388Z,9.18
2022-11-05T02:49:35.734Z,9.23
2022-11-05T02:53:42.678Z,9.23
2022-11-05T02:57:46.528Z,9.26
2022-11-05T03:01:49.001Z,9.30
2022-11-05T03:05:53.654Z,9.32
2022-11-05T03:10:27.393Z,9.37
2022-11-05T03:14:51.172Z,9.36
2022-11-05T03:19:19.268Z,9.24
2022-11-05T03:23:32.129Z,9.20
2022-11-05T03:27:38.009Z,9.23
2022-11-05T03:31:41.532Z,9.26
2022-11-05T03:35:50.149Z,9.30
2022-11-05T03:39:56.338Z,9.27
2022-11-05T03:43:59.597Z,9.19
2022-11-05T03:48:04.769Z,9.25
2022-11-05T03:52:16.538Z,9.25
2022-11-05T03:56:26.212Z,9.29
2022-11-05T04:00:27.794Z,9.27
2022-11-05T04:04:29.491Z,9.29
2022-11-05T04:08:49.559Z,9.32
2022-11-05T04:13:09.910Z,9.35
2022-11-05T04:17:11.815Z,9.37
2022-11-05T04:21:31.886Z,9.41
2022-11-05T04:25:33.724Z,9.40
2022-11-05T04:29:53.988Z,9.47
2022-11-05T04:33:55.435Z,9.51
2022-11-05T04:37:57.053Z,9.54
2022-11-05T04:41:58.633Z,9.51
2022-11-05T04:46:00.307Z,9.52
2022-11-05T04:50:01.914Z,9.51
2022-11-05T04:54:04.083Z,9.53
2022-11-05T04:58:06.132Z,9.56
2022-11-05T05:02:07.994Z,9.53
2022-11-05T05:06:10.365Z,9.54
2022-11-05T05:10:12.426Z,9.61
2022-11-05T05:14:13.974Z,9.63
2022-11-05T05:18:15.631Z,9.65
2022-11-05T05:22:17.245Z,9.64
2022-11-05T05:26:18.864Z,9.60
2022-11-05T05:30:20.366Z,9.62
2022-11-05T05:34:22.057Z,9.62
2022-11-05T05:38:23.847Z,9.59
2022-11-05T05:42:25.327Z,9.59
2022-11-05T05:46:26.812Z,9.63
2022-11-05T05:50:28.330Z,9.59
2022-11-05T05:54:33.437Z,9.44
2022-11-05T05:58:39.086Z,9.47
2022-11-05T06:02:40.740Z,9.48
2022-11-05T06:06:42.635Z,9.51
2022-11-05T06:10:50.656Z,9.60
2022-11-05T06:14:52.484Z,9.69
2022-11-05T06:18:53.980Z,9.66
2022-11-05T06:22:58.623Z,9.65
2022-11-05T06:27:00.138Z,9.62
2022-11-05T06:31:02.747Z,9.70
2022-11-05T06:35:04.555Z,9.74
2022-11-05T06:39:11.252Z,9.71
2022-11-05T06:43:13.096Z,9.84
2022-11-05T06:47:15.180Z,9.87
2022-11-05T06:51:16.748Z,9.94
2022-11-05T06:55:18.274Z,10.06
2022-11-05T06:59:20.101Z,10.05
2022-11-05T07:03:21.756Z,9.99
2022-11-05T07:07:23.301Z,9.98
2022-11-05T07:11:24.834Z,9.98
2022-11-05T07:15:26.324Z,10.02
2022-11-05T07:19:27.857Z,10.22
2022-11-05T07:23:29.494Z,10.27
2022-11-05T07:27:31.352Z,10.32
2022-11-05T07:31:32.981Z,10.33
2022-11-05T07:35:34.842Z,10.33
2022-11-05T07:39:36.430Z,10.31
2022-11-05T07:43:37.960Z,10.43
2022-11-05T07:47:45.534Z,10.39
2022-11-05T07:51:47.296Z,10.36
2022-11-05T07:55:49.047Z,10.40
2022-11-05T07:59:50.614Z,10.44
2022-11-05T08:03:52.221Z,10.63
2022-11-05T08:07:55.217Z,10.66
2022-11-05T08:12:02.612Z,10.57
2022-11-05T08:16:05.732Z,10.66
2022-11-05T08:20:08.132Z,10.86
2022-11-05T08:24:09.943Z,10.81
2022-11-05T08:28:13.118Z,10.85
2022-11-05T08:32:14.784Z,10.97
2022-11-05T08:36:16.422Z,10.98
2022-11-05T08:40:18.155Z,11.07
2022-11-05T08:44:19.935Z,11.29
2022-11-05T08:48:21.601Z,11.50
2022-11-05T08:52:23.156Z,11.49
2022-11-05T08:56:24.797Z,11.41
2022-11-05T09:00:28.421Z,11.31
2022-11-05T09:04:30.395Z,11.22
2022-11-05T09:08:32.116Z,11.41
2022-11-05T09:12:33.727Z,11.46
2022-11-05T09:16:36.943Z,11.91
2022-11-05T09:20:40.032Z,11.97
2022-11-05T09:24:43.385Z,11.78
2022-11-05T09:28:45.102Z,11.76
2022-11-05T09:32:46.892Z,11.94
2022-11-05T09:36:48.969Z,12.22
2022-11-05T09:41:01.693Z,12.11
2022-11-05T09:45:25.176Z,12.08
2022-11-05T09:49:35.417Z,12.16
2022-11-05T09:53:40.868Z,12.15
2022-11-05T09:57:47.908Z,12.58
2022-11-05T10:01:52.433Z,13.95
2022-11-05T10:06:00.213Z,18.54
2022-11-05T10:10:06.348Z,20.92
2022-11-05T10:14:16.811Z,20.95
2022-11-05T10:18:31.599Z,21.15
2022-11-05T10:22:33.384Z,21.57
2022-11-05T10:26:35.150Z,21.36
2022-11-05T10:30:37.193Z,23.13
2022-11-05T10:34:39.987Z,21.39
2022-11-05T10:38:42.259Z,19.27
2022-11-05T10:43:00.547Z,17.85
2022-11-05T10:47:33.542Z,21.10
2022-11-05T10:51:35.222Z,21.89
2022-11-05T10:55:41.530Z,24.16
2022-11-05T10:59:43.132Z,25.10
2022-11-05T11:03:49.399Z,23.27
2022-11-05T11:08:01.294Z,20.09
2022-11-05T11:12:16.945Z,17.56
2022-11-05T11:16:23.947Z,16.38
2022-11-05T11:20:31.516Z,15.53
2022-11-05T11:24:41.548Z,15.01
2022-11-05T11:28:51.197Z,15.86
2022-11-05T11:32:59.143Z,18.65
2022-11-05T11:37:19.508Z,22.63
2022-11-05T11:41:27.937Z,22.78
2022-11-05T11:45:52.862Z,22.63
2022-11-05T11:49:57.423Z,26.02
2022-11-05T11:54:00.226Z,23.07
2022-11-05T11:58:07.750Z,18.25
2022-11-05T12:02:34.943Z,16.39
2022-11-05T12:06:46.244Z,17.35
2022-11-05T12:11:01.068Z,22.92
2022-11-05T12:15:17.788Z,25.58
2022-11-05T12:20:06.648Z,26.38
2022-11-05T12:24:23.474Z,28.06
2022-11-05T12:29:12.319Z,28.13
2022-11-05T12:33:13.854Z,25.46
2022-11-05T12:37:30.864Z,22.11
2022-11-05T12:42:00.172Z,19.50
2022-11-05T12:46:12.828Z,18.06
2022-11-05T12:50:29.752Z,17.15
2022-11-05T12:54:53.219Z,16.43
2022-11-05T12:59:02.516Z,16.22
2022-11-05T13:03:20.665Z,15.98
2022-11-05T13:07:58.012Z,15.75
2022-11-05T13:12:11.997Z,16.04
2022-11-05T13:16:24.177Z,16.28
2022-11-05T13:20:39.726Z,18.06
2022-11-05T13:24:57.484Z,21.45
2022-11-05T13:29:10.239Z,24.24
2022-11-05T13:33:20.962Z,28.51
2022-11-05T13:37:55.876Z,28.09
2022-11-05T13:42:28.389Z,29.44
2022-11-05T13:46:46.955Z,26.90
2022-11-05T13:50:59.791Z,23.62
2022-11-05T13:55:29.763Z,20.52
2022-11-05T13:59:31.294Z,18.38
2022-11-05T14:03:33.230Z,17.37
2022-11-05T14:07:46.193Z,16.91
2022-11-05T14:11:51.665Z,16.22
2022-11-05T14:16:05.607Z,15.84
2022-11-05T14:20:23.054Z,15.35
2022-11-05T14:24:28.000Z,14.91
2022-11-05T14:28:35.582Z,14.56
2022-11-05T14:32:48.565Z,17.42
2022-11-05T14:37:19.866Z,20.33
2022-11-05T14:41:22.391Z,18.82
2022-11-05T14:45:30.443Z,16.46
2022-11-05T14:49:50.954Z,15.26
2022-11-05T14:54:15.179Z,14.41
2022-11-05T14:58:17.370Z,14.03
2022-11-05T15:02:23.002Z,13.50
2022-11-05T15:06:35.058Z,13.12
2022-11-05T15:10:37.486Z,12.89
2022-11-05T15:14:59.059Z,12.67
2022-11-05T15:19:01.258Z,12.41
2022-11-05T15:23:06.435Z,12.20
2022-11-05T15:27:16.033Z,11.98
2022-11-05T15:31:37.379Z,11.74
2022-11-05T15:35:41.323Z,11.54
2022-11-05T15:39:45.331Z,11.42
2022-11-05T15:43:48.563Z,11.35
2022-11-05T15:47:50.191Z,11.31
2022-11-05T15:51:51.821Z,11.07
2022-11-05T15:55:58.026Z,10.95
2022-11-05T16:00:04.566Z,10.80
2022-11-05T16:04:17.551Z,10.69
2022-11-05T16:08:23.263Z,10.51
2022-11-05T16:12:33.729Z,10.28
2022-11-05T16:16:35.359Z,10.06
2022-11-05T16:20:38.709Z,9.93
2022-11-05T16:24:40.907Z,9.80
2022-11-05T16:28:50.636Z,9.64
2022-11-05T16:32:52.973Z,9.53
2022-11-05T16:36:57.118Z,9.36
2022-11-05T16:41:00.292Z,9.26
2022-11-05T16:45:02.049Z,9.13
2022-11-05T16:49:03.974Z,9.00
2022-11-05T16:53:05.566Z,8.88
2022-11-05T16:57:15.674Z,8.81
2022-11-05T17:01:20.439Z,8.79
2022-11-05T17:05:26.139Z,8.82
2022-11-05T17:09:27.695Z,8.81
2022-11-05T17:13:29.221Z,8.76
2022-11-05T17:17:30.709Z,8.70
2022-11-05T17:21:32.438Z,8.59
2022-11-05T17:25:34.164Z,8.46
2022-11-05T17:29:35.694Z,8.31
2022-11-05T17:33:37.280Z,8.27
2022-11-05T17:37:38.896Z,8.25
2022-11-05T17:41:40.485Z,8.10
2022-11-05T17:45:44.653Z,8.05
2022-11-05T17:49:46.275Z,8.01
2022-11-05T17:53:49.142Z,7.92
2022-11-05T17:57:51.955Z,7.77
2022-11-05T18:01:53.616Z,7.63
2022-11-05T18:06:01.763Z,7.54
2022-11-05T18:10:04.287Z,7.57
2022-11-05T18:14:06.292Z,7.61
2022-11-05T18:18:08.347Z,7.58
2022-11-05T18:22:10.064Z,7.56
2022-11-05T18:26:13.168Z,7.47
2022-11-05T18:30:15.734Z,7.33
2022-11-05T18:34:17.286Z,7.26
2022-11-05T18:38:19.052Z,7.21
2022-11-05T18:42:21.466Z,7.17
2022-11-05T18:46:51.082Z,7.22
2022-11-05T18:50:44.582Z,7.25
2022-11-05T18:54:46.234Z,7.24
2022-11-05T18:58:47.987Z,7.19
2022-11-05T19:02:49.728Z,7.08
2022-11-05T19:06:51.372Z,7.10
2022-11-05T19:10:53.281Z,7.12
2022-11-05T19:15:00.965Z,7.13
2022-11-05T19:19:05.656Z,7.09
2022-11-05T19:23:07.157Z,6.99
2022-11-05T19:27:08.638Z,6.90
2022-11-05T19:31:14.117Z,6.83
2022-11-05T19:35:15.728Z,6.72
2022-11-05T19:39:17.485Z,6.67
2022-11-05T19:43:19.325Z,6.68
2022-11-05T19:47:21.024Z,6.64
2022-11-05T19:51:25.320Z,6.57
2022-11-05T19:55:27.318Z,6.55
2022-11-05T19:59:28.959Z,6.48
2022-11-05T20:03:31.177Z,6.45
2022-11-05T20:07:34.017Z,6.35
2022-11-05T20:11:37.765Z,6.30
2022-11-05T20:15:39.665Z,6.19
2022-11-05T20:19:41.237Z,6.12
2022-11-05T20:23:43.211Z,6.06
2022-11-05T20:27:44.764Z,6.01
2022-11-05T20:31:46.897Z,6.00
2022-11-05T20:35:48.631Z,6.01
2022-11-05T20:39:50.213Z,5.97
2022-11-05T20:43:51.877Z,6.02
2022-11-05T20:47:53.303Z,6.03
2022-11-05T20:51:55.046Z,5.92
2022-11-05T20:55:56.651Z,5.80
2022-11-05T20:59:58.098Z,5.65
2022-11-05T21:04:00.038Z,5.61
2022-11-05T21:08:01.522Z,5.61
2022-11-05T21:12:12.199Z,5.53
2022-11-05T21:16:18.220Z,5.51
2022-11-05T21:20:21.311Z,5.47
2022-11-05T21:24:23.046Z,5.49
2022-11-05T21:28:24.619Z,5.48
2022-11-05T21:32:26.375Z,5.41
2022-11-05T21:36:27.819Z,5.49
2022-11-05T21:40:29.488Z,5.44
2022-11-05T21:44:31.010Z,5.44
2022-11-05T21:48:32.971Z,5.44
2022-11-05T21:52:53.582Z,5.47
2022-11-05T21:57:13.902Z,5.41
2022-11-05T22:01:15.577Z,5.33
2022-11-05T22:05:17.314Z,5.37
2022-11-05T22:09:18.843Z,5.36
2022-11-05T22:13:20.361Z,5.29
2022-11-05T22:17:21.957Z,5.33
2022-11-05T22:21:23.582Z,5.35
2022-11-05T22:25:25.125Z,5.30
2022-11-05T22:29:27.813Z,5.28
2022-11-05T22:33:30.799Z,5.34
2022-11-05T22:37:32.449Z,5.45
2022-11-05T22:41:34.394Z,5.47
2022-11-05T22:45:36.392Z,5.50
2022-11-05T22:49:38.080Z,5.40
2022-11-05T22:53:41.220Z,5.40
2022-11-05T22:57:42.925Z,5.42
2022-11-05T23:01:45.524Z,5.42
2022-11-05T23:05:47.098Z,5.50
2022-11-05T23:10:07.335Z,5.42
2022-11-05T23:14:11.464Z,5.32
2022-11-05T23:18:31.625Z,5.25
2022-11-05T23:22:51.423Z,5.20
2022-11-05T23:26:53.833Z,5.05
2022-11-05T23:31:14.252Z,4.87
2022-11-05T23:35:16.413Z,4.87
2022-11-05T23:39:18.011Z,4.87
2022-11-05T23:43:38.058Z,4.79
2022-11-05T23:47:58.222Z,4.70
2022-11-05T23:51:59.769Z,4.76
2022-11-05T23:56:05.075Z,4.68
